Погода Эль-Хуфуфна 2 недели

Табук, Саудовская Аравия

29 февраля-12 марта
  • 29февраля
    Сегодня
    +9°
    +20°
    Ясно и безоблачно
    ВремяПогодаТемператураВлажностьДавлениеВетер, м/сВероятность осадков
    00:00Ясно и безоблачно+15°C74 %749 мм4.0 м/с2 %
    03:00Ясно и безоблачно+14°C84 %749 мм4.7 м/с2 %
    06:00Ясно и безоблачно+13°C79 %751 мм6.5 м/с2 %
    09:00Ясно и безоблачно+15°C28 %752 мм8.2 м/с2 %
    12:00Ясно и безоблачно+19°C14 %751 мм8.4 м/с2 %
    15:00Ясно и безоблачно+20°C16 %750 мм8.7 м/с2 %
    18:00Ясно и безоблачно+16°C19 %751 мм5.7 м/с2 %
    21:00Ясно и безоблачно+14°C22 %752 мм4.2 м/с2 %
  • 01марта
    Пятница
    +9°
    +21°
    Ясно и безоблачно
    ВремяПогодаТемператураВлажностьДавлениеВетер, м/сВероятность осадков
    00:00Ясно и безоблачно+12°C27 %752 мм4.3 м/с2 %
    03:00Ясно и безоблачно+11°C29 %752 мм4.9 м/с2 %
    06:00Ясно и безоблачно+10°C34 %753 мм4.8 м/с2 %
    09:00Ясно и безоблачно+14°C27 %754 мм6.3 м/с2 %
    12:00Ясно и безоблачно+19°C22 %753 мм5.6 м/с2 %
    15:00Ясно и безоблачно+21°C13 %752 мм5.6 м/с2 %
    18:00Практически безоблачно+17°C15 %752 мм3.7 м/с2 %
    21:00Ясно и безоблачно+13°C20 %753 мм2.6 м/с2 %
  • 02марта
    Суббота
    +10°
    +22°
    Ясно и безоблачно
    ВремяПогодаТемператураВлажностьДавлениеВетер, м/сВероятность осадков
    00:00Небольшая облачность+11°C26 %753 мм1.7 м/с2 %
    03:00Практически безоблачно+9°C28 %752 мм1.0 м/с2 %
    06:00Ясно и безоблачно+9°C31 %753 мм1.4 м/с2 %
    09:00Ясно и безоблачно+15°C21 %754 мм2.0 м/с2 %
    12:00Практически безоблачно+20°C20 %753 мм1.9 м/с2 %
    15:00Ясно и безоблачно+22°C16 %751 мм2.6 м/с2 %
    18:00Ясно и безоблачно+18°C24 %750 мм2.9 м/с2 %
    21:00Ясно и безоблачно+14°C44 %751 мм2.5 м/с2 %
  • 03марта
    Воскресенье
    +15°
    +25°
    Ясно и безоблачно
    ВремяПогодаТемператураВлажностьДавлениеВетер, м/сВероятность осадков
    00:00Ясно и безоблачно+12°C57 %750 мм2.0 м/с2 %
    03:00Ясно и безоблачно+11°C63 %749 мм2.5 м/с2 %
    06:00Ясно и безоблачно+11°C69 %750 мм2.3 м/с2 %
    09:00Ясно и безоблачно+16°C44 %751 мм3.6 м/с2 %
    12:00Ясно и безоблачно+22°C17 %749 мм6.1 м/с2 %
    15:00Ясно и безоблачно+25°C11 %747 мм6.7 м/с4 %
    18:00Ясно и безоблачно+22°C15 %747 мм6.0 м/с3 %
    21:00Ясно и безоблачно+19°C21 %747 мм6.8 м/с2 %
  • 04марта
    Понедельник
    +15°
    +28°
    Ясно и безоблачно
    ВремяПогодаТемператураВлажностьДавлениеВетер, м/сВероятность осадков
    00:00Ясно и безоблачно+17°C39 %746 мм4.6 м/с2 %
    03:00Ясно и безоблачно+16°C43 %745 мм3.9 м/с2 %
    06:00Практически безоблачно+15°C57 %746 мм4.1 м/с7 %
    09:00Ясно и безоблачно+20°C32 %748 мм5.0 м/с5 %
    12:00Ясно и безоблачно+26°C18 %746 мм5.7 м/с2 %
    15:00Ясно и безоблачно+27°C14 %745 мм6.1 м/с2 %
    18:00Ясно и безоблачно+23°C16 %746 мм4.5 м/с3 %
    21:00Ясно и безоблачно+19°C22 %747 мм3.7 м/с2 %
Мы используем cookies
Соглашаюсь